Terminal Aerodrome Forecast
Issued by NWS

Current Version | Previous Version | Graphics & Text | Print | Product List | Glossary On
Versions: 1 2 3 4 5 6 7 8 9 10 11 12 13 14 15 16 17 18 19 20 21 22 23 24 25 26 27 28 29
000
FTUS41 KILN 132300
TAFLUK
TAF
KLUK 132335Z 1400/1424 03004KT P6SM FEW050
     FM140200 00000KT P6SM SKC
     FM140600 00000KT 4SM BR SKC
     FM140900 00000KT 1SM BR SCT250
     FM141300 00000KT 4SM BR SCT250
     FM141400 VRB04KT P6SM SCT250
     FM142300 00000KT P6SM SKC=

USA.gov is the U.S. government's official web portal to all federal, state and local government web resources and services.